sensor_id;sensor_type;location;lat;lon;timestamp;P1;durP1;ratioP1;P2;durP2;ratioP2
10303;SDS011;5197;48.152;8.590;2023-12-29T00:00:58;4.60;;;3.90;;
10303;SDS011;5197;48.152;8.590;2023-12-29T00:03:25;4.87;;;3.93;;
10303;SDS011;5197;48.152;8.590;2023-12-29T00:05:53;4.40;;;4.00;;
10303;SDS011;5197;48.152;8.590;2023-12-29T00:08:20;4.20;;;3.73;;
10303;SDS011;5197;48.152;8.590;2023-12-29T00:10:47;6.63;;;4.50;;
10303;SDS011;5197;48.152;8.590;2023-12-29T00:13:14;4.90;;;4.27;;
10303;SDS011;5197;48.152;8.590;2023-12-29T00:15:41;4.50;;;3.93;;
10303;SDS011;5197;48.152;8.590;2023-12-29T00:18:09;5.10;;;4.60;;
10303;SDS011;5197;48.152;8.590;2023-12-29T00:20:36;5.30;;;4.80;;
10303;SDS011;5197;48.152;8.590;2023-12-29T00:23:07;6.13;;;4.47;;
10303;SDS011;5197;48.152;8.590;2023-12-29T00:25:37;5.10;;;4.60;;
10303;SDS011;5197;48.152;8.590;2023-12-29T00:28:05;5.23;;;4.03;;
10303;SDS011;5197;48.152;8.590;2023-12-29T00:30:32;4.60;;;4.20;;
10303;SDS011;5197;48.152;8.590;2023-12-29T00:33:20;4.67;;;4.27;;
10303;SDS011;5197;48.152;8.590;2023-12-29T00:35:47;5.83;;;5.10;;
10303;SDS011;5197;48.152;8.590;2023-12-29T00:38:14;4.70;;;4.30;;
10303;SDS011;5197;48.152;8.590;2023-12-29T00:40:41;8.03;;;4.97;;
10303;SDS011;5197;48.152;8.590;2023-12-29T00:43:08;5.87;;;4.60;;
10303;SDS011;5197;48.152;8.590;2023-12-29T00:45:35;5.30;;;4.80;;
10303;SDS011;5197;48.152;8.590;2023-12-29T00:48:02;5.33;;;4.83;;
10303;SDS011;5197;48.152;8.590;2023-12-29T00:50:30;5.00;;;4.60;;
10303;SDS011;5197;48.152;8.590;2023-12-29T00:52:57;5.53;;;5.03;;
10303;SDS011;5197;48.152;8.590;2023-12-29T00:55:24;5.13;;;4.63;;
10303;SDS011;5197;48.152;8.590;2023-12-29T00:57:52;5.00;;;4.50;;
10303;SDS011;5197;48.152;8.590;2023-12-29T01:00:19;5.27;;;4.80;;
10303;SDS011;5197;48.152;8.590;2023-12-29T01:02:46;9.60;;;5.53;;
10303;SDS011;5197;48.152;8.590;2023-12-29T01:05:16;5.77;;;5.13;;
10303;SDS011;5197;48.152;8.590;2023-12-29T01:07:44;5.70;;;5.07;;
10303;SDS011;5197;48.152;8.590;2023-12-29T01:10:11;5.23;;;4.73;;
10303;SDS011;5197;48.152;8.590;2023-12-29T01:12:38;7.13;;;5.23;;
10303;SDS011;5197;48.152;8.590;2023-12-29T01:15:05;5.97;;;5.00;;
10303;SDS011;5197;48.152;8.590;2023-12-29T01:17:32;7.57;;;5.20;;
10303;SDS011;5197;48.152;8.590;2023-12-29T01:20:00;5.70;;;5.17;;
10303;SDS011;5197;48.152;8.590;2023-12-29T01:22:28;8.03;;;5.60;;
10303;SDS011;5197;48.152;8.590;2023-12-29T01:24:55;6.87;;;5.83;;
10303;SDS011;5197;48.152;8.590;2023-12-29T01:27:25;6.03;;;5.53;;
10303;SDS011;5197;48.152;8.590;2023-12-29T01:29:52;5.90;;;5.40;;
10303;SDS011;5197;48.152;8.590;2023-12-29T01:32:19;6.30;;;5.70;;
10303;SDS011;5197;48.152;8.590;2023-12-29T01:34:48;6.77;;;6.00;;
10303;SDS011;5197;48.152;8.590;2023-12-29T01:37:15;6.00;;;5.40;;
10303;SDS011;5197;48.152;8.590;2023-12-29T01:39:42;8.73;;;5.70;;
10303;SDS011;5197;48.152;8.590;2023-12-29T01:42:10;5.93;;;5.33;;
10303;SDS011;5197;48.152;8.590;2023-12-29T01:44:39;6.10;;;5.50;;
10303;SDS011;5197;48.152;8.590;2023-12-29T01:47:13;6.13;;;5.53;;
10303;SDS011;5197;48.152;8.590;2023-12-29T01:49:44;6.30;;;5.73;;
10303;SDS011;5197;48.152;8.590;2023-12-29T01:52:12;6.30;;;5.40;;
10303;SDS011;5197;48.152;8.590;2023-12-29T01:54:41;6.73;;;5.00;;
10303;SDS011;5197;48.152;8.590;2023-12-29T01:57:09;8.10;;;4.40;;
10303;SDS011;5197;48.152;8.590;2023-12-29T01:59:37;4.53;;;4.00;;
10303;SDS011;5197;48.152;8.590;2023-12-29T02:02:07;4.10;;;3.70;;
10303;SDS011;5197;48.152;8.590;2023-12-29T02:04:34;4.80;;;3.07;;
10303;SDS011;5197;48.152;8.590;2023-12-29T02:07:03;3.20;;;2.97;;
10303;SDS011;5197;48.152;8.590;2023-12-29T02:09:30;2.97;;;2.77;;
10303;SDS011;5197;48.152;8.590;2023-12-29T02:12:00;3.20;;;2.90;;
10303;SDS011;5197;48.152;8.590;2023-12-29T02:14:27;2.90;;;2.70;;
10303;SDS011;5197;48.152;8.590;2023-12-29T02:17:02;2.80;;;2.60;;
10303;SDS011;5197;48.152;8.590;2023-12-29T02:19:51;3.27;;;2.67;;
10303;SDS011;5197;48.152;8.590;2023-12-29T02:22:19;3.33;;;3.03;;
10303;SDS011;5197;48.152;8.590;2023-12-29T02:24:46;2.70;;;2.50;;
10303;SDS011;5197;48.152;8.590;2023-12-29T02:32:49;2.53;;;2.30;;
10303;SDS011;5197;48.152;8.590;2023-12-29T02:35:21;4.43;;;3.10;;
10303;SDS011;5197;48.152;8.590;2023-12-29T02:37:52;2.50;;;2.40;;
10303;SDS011;5197;48.152;8.590;2023-12-29T02:40:20;2.80;;;2.47;;
10303;SDS011;5197;48.152;8.590;2023-12-29T02:42:47;2.77;;;2.30;;
10303;SDS011;5197;48.152;8.590;2023-12-29T02:45:15;2.60;;;2.40;;
10303;SDS011;5197;48.152;8.590;2023-12-29T02:47:42;2.23;;;2.13;;
10303;SDS011;5197;48.152;8.590;2023-12-29T02:50:11;2.07;;;1.97;;
10303;SDS011;5197;48.152;8.590;2023-12-29T02:52:38;2.33;;;2.23;;
10303;SDS011;5197;48.152;8.590;2023-12-29T02:55:05;2.70;;;2.30;;
10303;SDS011;5197;48.152;8.590;2023-12-29T02:57:32;2.20;;;2.10;;
10303;SDS011;5197;48.152;8.590;2023-12-29T02:59:59;2.40;;;2.20;;
10303;SDS011;5197;48.152;8.590;2023-12-29T03:02:26;2.23;;;1.83;;
10303;SDS011;5197;48.152;8.590;2023-12-29T03:04:53;2.47;;;2.30;;
10303;SDS011;5197;48.152;8.590;2023-12-29T03:07:20;2.40;;;1.90;;
10303;SDS011;5197;48.152;8.590;2023-12-29T03:09:47;1.90;;;1.80;;
10303;SDS011;5197;48.152;8.590;2023-12-29T03:12:14;2.00;;;1.90;;
10303;SDS011;5197;48.152;8.590;2023-12-29T03:14:41;2.37;;;2.00;;
10303;SDS011;5197;48.152;8.590;2023-12-29T03:17:08;2.13;;;2.03;;
10303;SDS011;5197;48.152;8.590;2023-12-29T03:19:36;2.30;;;2.20;;
10303;SDS011;5197;48.152;8.590;2023-12-29T03:22:03;2.00;;;1.90;;
10303;SDS011;5197;48.152;8.590;2023-12-29T03:24:30;3.13;;;2.10;;
10303;SDS011;5197;48.152;8.590;2023-12-29T03:26:57;2.40;;;2.20;;
10303;SDS011;5197;48.152;8.590;2023-12-29T03:29:24;2.17;;;2.00;;
10303;SDS011;5197;48.152;8.590;2023-12-29T03:31:51;2.87;;;2.67;;
10303;SDS011;5197;48.152;8.590;2023-12-29T03:34:18;2.30;;;2.07;;
10303;SDS011;5197;48.152;8.590;2023-12-29T03:36:46;2.60;;;2.40;;
10303;SDS011;5197;48.152;8.590;2023-12-29T03:39:13;2.00;;;1.90;;
10303;SDS011;5197;48.152;8.590;2023-12-29T03:41:40;2.40;;;2.30;;
10303;SDS011;5197;48.152;8.590;2023-12-29T03:44:07;2.73;;;2.53;;
10303;SDS011;5197;48.152;8.590;2023-12-29T03:46:34;2.50;;;2.37;;
10303;SDS011;5197;48.152;8.590;2023-12-29T03:49:02;3.23;;;2.50;;
10303;SDS011;5197;48.152;8.590;2023-12-29T03:51:29;2.70;;;2.50;;
10303;SDS011;5197;48.152;8.590;2023-12-29T03:53:57;2.50;;;2.40;;
10303;SDS011;5197;48.152;8.590;2023-12-29T03:56:25;2.57;;;2.43;;
10303;SDS011;5197;48.152;8.590;2023-12-29T03:58:52;3.03;;;2.10;;
10303;SDS011;5197;48.152;8.590;2023-12-29T04:01:19;2.50;;;2.30;;
10303;SDS011;5197;48.152;8.590;2023-12-29T04:03:49;2.80;;;2.60;;
10303;SDS011;5197;48.152;8.590;2023-12-29T04:06:16;3.63;;;2.37;;
10303;SDS011;5197;48.152;8.590;2023-12-29T04:08:43;2.33;;;2.20;;
10303;SDS011;5197;48.152;8.590;2023-12-29T04:11:11;2.30;;;2.20;;
10303;SDS011;5197;48.152;8.590;2023-12-29T04:13:38;2.53;;;2.33;;
10303;SDS011;5197;48.152;8.590;2023-12-29T04:16:05;3.83;;;2.10;;
10303;SDS011;5197;48.152;8.590;2023-12-29T04:18:32;3.37;;;2.27;;
10303;SDS011;5197;48.152;8.590;2023-12-29T04:20:59;2.10;;;2.00;;
10303;SDS011;5197;48.152;8.590;2023-12-29T04:23:26;2.53;;;2.33;;
10303;SDS011;5197;48.152;8.590;2023-12-29T04:25:53;2.90;;;2.50;;
10303;SDS011;5197;48.152;8.590;2023-12-29T04:28:20;2.20;;;2.10;;
10303;SDS011;5197;48.152;8.590;2023-12-29T04:30:47;2.20;;;2.10;;
10303;SDS011;5197;48.152;8.590;2023-12-29T04:33:15;2.43;;;2.30;;
10303;SDS011;5197;48.152;8.590;2023-12-29T04:35:42;2.23;;;2.07;;
10303;SDS011;5197;48.152;8.590;2023-12-29T04:38:09;3.93;;;2.20;;
10303;SDS011;5197;48.152;8.590;2023-12-29T04:40:36;2.13;;;2.03;;
10303;SDS011;5197;48.152;8.590;2023-12-29T04:43:04;2.57;;;1.93;;
10303;SDS011;5197;48.152;8.590;2023-12-29T04:45:31;2.00;;;1.80;;
10303;SDS011;5197;48.152;8.590;2023-12-29T04:47:58;2.50;;;2.30;;
10303;SDS011;5197;48.152;8.590;2023-12-29T04:50:25;1.97;;;1.87;;
10303;SDS011;5197;48.152;8.590;2023-12-29T04:52:52;1.83;;;1.73;;
10303;SDS011;5197;48.152;8.590;2023-12-29T04:55:19;2.30;;;2.10;;
10303;SDS011;5197;48.152;8.590;2023-12-29T04:57:46;2.27;;;2.07;;
10303;SDS011;5197;48.152;8.590;2023-12-29T05:00:13;2.23;;;2.03;;
10303;SDS011;5197;48.152;8.590;2023-12-29T05:02:41;1.80;;;1.70;;
10303;SDS011;5197;48.152;8.590;2023-12-29T05:05:09;2.10;;;1.80;;
10303;SDS011;5197;48.152;8.590;2023-12-29T05:07:37;2.00;;;1.90;;
10303;SDS011;5197;48.152;8.590;2023-12-29T05:10:04;1.97;;;1.87;;
10303;SDS011;5197;48.152;8.590;2023-12-29T05:12:32;2.10;;;1.80;;
10303;SDS011;5197;48.152;8.590;2023-12-29T05:14:59;1.80;;;1.70;;
10303;SDS011;5197;48.152;8.590;2023-12-29T05:17:26;2.10;;;1.90;;
10303;SDS011;5197;48.152;8.590;2023-12-29T05:19:53;2.03;;;1.90;;
10303;SDS011;5197;48.152;8.590;2023-12-29T05:22:20;2.67;;;1.70;;
10303;SDS011;5197;48.152;8.590;2023-12-29T05:24:47;2.00;;;1.90;;
10303;SDS011;5197;48.152;8.590;2023-12-29T05:27:14;1.70;;;1.60;;
10303;SDS011;5197;48.152;8.590;2023-12-29T05:29:41;3.47;;;1.70;;
10303;SDS011;5197;48.152;8.590;2023-12-29T05:32:08;1.83;;;1.40;;
10303;SDS011;5197;48.152;8.590;2023-12-29T05:34:35;1.83;;;1.40;;
10303;SDS011;5197;48.152;8.590;2023-12-29T05:37:02;2.13;;;1.70;;
10303;SDS011;5197;48.152;8.590;2023-12-29T05:39:29;1.80;;;1.70;;
10303;SDS011;5197;48.152;8.590;2023-12-29T05:41:56;1.90;;;1.80;;
10303;SDS011;5197;48.152;8.590;2023-12-29T05:44:23;1.67;;;1.57;;
10303;SDS011;5197;48.152;8.590;2023-12-29T05:46:50;2.40;;;1.63;;
10303;SDS011;5197;48.152;8.590;2023-12-29T05:49:17;1.53;;;1.43;;
10303;SDS011;5197;48.152;8.590;2023-12-29T05:51:44;3.40;;;1.60;;
10303;SDS011;5197;48.152;8.590;2023-12-29T05:54:11;1.57;;;1.47;;
10303;SDS011;5197;48.152;8.590;2023-12-29T05:56:39;1.33;;;1.33;;
10303;SDS011;5197;48.152;8.590;2023-12-29T05:59:05;1.50;;;1.40;;
10303;SDS011;5197;48.152;8.590;2023-12-29T06:01:32;1.67;;;1.57;;
10303;SDS011;5197;48.152;8.590;2023-12-29T06:04:00;1.80;;;1.60;;
10303;SDS011;5197;48.152;8.590;2023-12-29T06:06:26;1.33;;;1.33;;
10303;SDS011;5197;48.152;8.590;2023-12-29T06:08:54;1.37;;;1.27;;
10303;SDS011;5197;48.152;8.590;2023-12-29T06:11:21;1.40;;;1.30;;
10303;SDS011;5197;48.152;8.590;2023-12-29T06:13:48;2.07;;;1.43;;
10303;SDS011;5197;48.152;8.590;2023-12-29T06:16:21;1.23;;;1.17;;
10303;SDS011;5197;48.152;8.590;2023-12-29T06:18:48;2.13;;;1.10;;
10303;SDS011;5197;48.152;8.590;2023-12-29T06:21:15;1.20;;;1.20;;
10303;SDS011;5197;48.152;8.590;2023-12-29T06:23:43;1.37;;;1.27;;
10303;SDS011;5197;48.152;8.590;2023-12-29T06:26:17;1.20;;;1.20;;
10303;SDS011;5197;48.152;8.590;2023-12-29T06:28:45;1.23;;;1.23;;
10303;SDS011;5197;48.152;8.590;2023-12-29T06:31:13;1.20;;;1.20;;
10303;SDS011;5197;48.152;8.590;2023-12-29T06:33:41;1.40;;;1.30;;
10303;SDS011;5197;48.152;8.590;2023-12-29T06:36:09;1.30;;;1.30;;
10303;SDS011;5197;48.152;8.590;2023-12-29T06:38:36;2.57;;;1.40;;
10303;SDS011;5197;48.152;8.590;2023-12-29T06:41:03;1.47;;;1.30;;
10303;SDS011;5197;48.152;8.590;2023-12-29T06:43:31;1.40;;;1.30;;
10303;SDS011;5197;48.152;8.590;2023-12-29T06:45:58;1.73;;;1.30;;
10303;SDS011;5197;48.152;8.590;2023-12-29T06:48:25;1.60;;;1.47;;
10303;SDS011;5197;48.152;8.590;2023-12-29T06:50:52;2.50;;;2.20;;
10303;SDS011;5197;48.152;8.590;2023-12-29T06:53:19;3.13;;;2.37;;
10303;SDS011;5197;48.152;8.590;2023-12-29T06:55:46;3.03;;;2.80;;
10303;SDS011;5197;48.152;8.590;2023-12-29T06:58:13;3.10;;;2.90;;
10303;SDS011;5197;48.152;8.590;2023-12-29T07:00:40;4.97;;;3.60;;
10303;SDS011;5197;48.152;8.590;2023-12-29T07:03:12;4.00;;;3.70;;
10303;SDS011;5197;48.152;8.590;2023-12-29T07:05:40;4.40;;;4.00;;
10303;SDS011;5197;48.152;8.590;2023-12-29T07:08:07;4.40;;;4.00;;
10303;SDS011;5197;48.152;8.590;2023-12-29T07:10:34;5.77;;;3.90;;
10303;SDS011;5197;48.152;8.590;2023-12-29T07:13:01;7.27;;;4.90;;
10303;SDS011;5197;48.152;8.590;2023-12-29T07:15:29;6.77;;;4.50;;
10303;SDS011;5197;48.152;8.590;2023-12-29T07:17:56;4.30;;;4.00;;
10303;SDS011;5197;48.152;8.590;2023-12-29T07:20:23;5.90;;;5.30;;
10303;SDS011;5197;48.152;8.590;2023-12-29T07:22:51;6.87;;;6.03;;
10303;SDS011;5197;48.152;8.590;2023-12-29T07:25:18;8.90;;;5.80;;
10303;SDS011;5197;48.152;8.590;2023-12-29T07:27:45;5.77;;;5.20;;
10303;SDS011;5197;48.152;8.590;2023-12-29T07:30:13;5.87;;;5.17;;
10303;SDS011;5197;48.152;8.590;2023-12-29T07:32:40;6.67;;;5.97;;
10303;SDS011;5197;48.152;8.590;2023-12-29T07:35:08;4.93;;;4.20;;
10303;SDS011;5197;48.152;8.590;2023-12-29T07:37:35;7.50;;;6.80;;
10303;SDS011;5197;48.152;8.590;2023-12-29T07:40:02;6.47;;;5.40;;
10303;SDS011;5197;48.152;8.590;2023-12-29T07:42:30;6.47;;;5.87;;
10303;SDS011;5197;48.152;8.590;2023-12-29T07:44:58;5.87;;;5.17;;
10303;SDS011;5197;48.152;8.590;2023-12-29T07:47:26;5.70;;;5.20;;
10303;SDS011;5197;48.152;8.590;2023-12-29T07:49:53;6.87;;;5.63;;
10303;SDS011;5197;48.152;8.590;2023-12-29T07:52:20;5.73;;;5.20;;
10303;SDS011;5197;48.152;8.590;2023-12-29T07:54:47;7.43;;;6.07;;
10303;SDS011;5197;48.152;8.590;2023-12-29T07:57:15;7.10;;;5.50;;
10303;SDS011;5197;48.152;8.590;2023-12-29T07:59:42;6.30;;;5.70;;
10303;SDS011;5197;48.152;8.590;2023-12-29T08:02:09;6.10;;;5.50;;
10303;SDS011;5197;48.152;8.590;2023-12-29T08:04:36;6.10;;;5.53;;
10303;SDS011;5197;48.152;8.590;2023-12-29T08:07:03;6.30;;;5.70;;
10303;SDS011;5197;48.152;8.590;2023-12-29T08:09:31;6.50;;;5.90;;
10303;SDS011;5197;48.152;8.590;2023-12-29T08:11:58;7.57;;;6.77;;
10303;SDS011;5197;48.152;8.590;2023-12-29T08:14:27;6.57;;;5.97;;
10303;SDS011;5197;48.152;8.590;2023-12-29T08:16:54;7.03;;;6.17;;
10303;SDS011;5197;48.152;8.590;2023-12-29T08:19:23;6.87;;;6.27;;
10303;SDS011;5197;48.152;8.590;2023-12-29T08:21:50;6.13;;;5.53;;
10303;SDS011;5197;48.152;8.590;2023-12-29T08:24:18;6.33;;;5.70;;
10303;SDS011;5197;48.152;8.590;2023-12-29T08:26:47;6.37;;;5.70;;
10303;SDS011;5197;48.152;8.590;2023-12-29T08:29:14;6.30;;;5.57;;
10303;SDS011;5197;48.152;8.590;2023-12-29T08:31:42;6.53;;;5.73;;
10303;SDS011;5197;48.152;8.590;2023-12-29T08:34:10;8.10;;;6.37;;
10303;SDS011;5197;48.152;8.590;2023-12-29T08:36:39;7.50;;;5.53;;
10303;SDS011;5197;48.152;8.590;2023-12-29T08:39:06;6.07;;;5.57;;
10303;SDS011;5197;48.152;8.590;2023-12-29T08:41:33;6.30;;;5.70;;
10303;SDS011;5197;48.152;8.590;2023-12-29T08:43:59;5.73;;;5.23;;
10303;SDS011;5197;48.152;8.590;2023-12-29T08:46:26;4.90;;;4.50;;
10303;SDS011;5197;48.152;8.590;2023-12-29T08:48:56;4.67;;;4.27;;
10303;SDS011;5197;48.152;8.590;2023-12-29T08:51:23;5.27;;;4.37;;
10303;SDS011;5197;48.152;8.590;2023-12-29T08:53:50;6.50;;;4.73;;
10303;SDS011;5197;48.152;8.590;2023-12-29T08:56:17;5.10;;;4.70;;
10303;SDS011;5197;48.152;8.590;2023-12-29T08:58:44;4.60;;;4.30;;
10303;SDS011;5197;48.152;8.590;2023-12-29T09:01:11;5.00;;;4.60;;
10303;SDS011;5197;48.152;8.590;2023-12-29T09:03:38;4.57;;;3.80;;
10303;SDS011;5197;48.152;8.590;2023-12-29T09:06:06;4.50;;;4.10;;
10303;SDS011;5197;48.152;8.590;2023-12-29T09:08:35;6.10;;;4.37;;
10303;SDS011;5197;48.152;8.590;2023-12-29T09:11:02;4.40;;;4.00;;
10303;SDS011;5197;48.152;8.590;2023-12-29T09:13:30;3.40;;;3.10;;
10303;SDS011;5197;48.152;8.590;2023-12-29T09:15:58;3.40;;;3.10;;
10303;SDS011;5197;48.152;8.590;2023-12-29T09:18:26;4.07;;;3.70;;
10303;SDS011;5197;48.152;8.590;2023-12-29T09:20:53;3.10;;;2.90;;
10303;SDS011;5197;48.152;8.590;2023-12-29T09:23:20;3.77;;;3.20;;
10303;SDS011;5197;48.152;8.590;2023-12-29T09:25:47;4.67;;;4.27;;
10303;SDS011;5197;48.152;8.590;2023-12-29T09:28:15;2.67;;;2.47;;
10303;SDS011;5197;48.152;8.590;2023-12-29T09:30:42;3.40;;;2.60;;
10303;SDS011;5197;48.152;8.590;2023-12-29T09:33:09;3.50;;;3.20;;
10303;SDS011;5197;48.152;8.590;2023-12-29T09:35:39;2.37;;;2.23;;
10303;SDS011;5197;48.152;8.590;2023-12-29T09:38:06;2.40;;;2.30;;
10303;SDS011;5197;48.152;8.590;2023-12-29T09:40:36;2.50;;;2.30;;
10303;SDS011;5197;48.152;8.590;2023-12-29T09:43:03;2.30;;;2.20;;
10303;SDS011;5197;48.152;8.590;2023-12-29T09:45:33;4.00;;;3.40;;
10303;SDS011;5197;48.152;8.590;2023-12-29T09:48:05;12.47;;;7.43;;
10303;SDS011;5197;48.152;8.590;2023-12-29T09:50:36;16.83;;;8.70;;
10303;SDS011;5197;48.152;8.590;2023-12-29T09:53:04;2.20;;;1.90;;
10303;SDS011;5197;48.152;8.590;2023-12-29T09:55:31;2.20;;;2.00;;
10303;SDS011;5197;48.152;8.590;2023-12-29T09:58:00;1.37;;;1.27;;
10303;SDS011;5197;48.152;8.590;2023-12-29T10:00:28;7.60;;;4.07;;
10303;SDS011;5197;48.152;8.590;2023-12-29T10:02:56;12.37;;;5.43;;
10303;SDS011;5197;48.152;8.590;2023-12-29T10:05:24;4.13;;;2.57;;
10303;SDS011;5197;48.152;8.590;2023-12-29T10:07:52;3.73;;;2.40;;
10303;SDS011;5197;48.152;8.590;2023-12-29T10:10:25;7.03;;;4.03;;
10303;SDS011;5197;48.152;8.590;2023-12-29T10:12:53;4.40;;;2.33;;
10303;SDS011;5197;48.152;8.590;2023-12-29T10:21:13;1.17;;;1.07;;
10303;SDS011;5197;48.152;8.590;2023-12-29T10:26:23;5.93;;;3.30;;
10303;SDS011;5197;48.152;8.590;2023-12-29T10:28:52;11.07;;;5.43;;
10303;SDS011;5197;48.152;8.590;2023-12-29T10:31:19;9.57;;;4.60;;
10303;SDS011;5197;48.152;8.590;2023-12-29T10:33:46;0.87;;;0.87;;
10303;SDS011;5197;48.152;8.590;2023-12-29T10:36:17;1.57;;;1.47;;
10303;SDS011;5197;48.152;8.590;2023-12-29T10:38:44;2.60;;;2.13;;
10303;SDS011;5197;48.152;8.590;2023-12-29T10:41:15;1.20;;;1.20;;
10303;SDS011;5197;48.152;8.590;2023-12-29T10:43:44;4.10;;;2.50;;
10303;SDS011;5197;48.152;8.590;2023-12-29T10:46:18;5.37;;;3.27;;
10303;SDS011;5197;48.152;8.590;2023-12-29T10:48:47;1.43;;;1.27;;
10303;SDS011;5197;48.152;8.590;2023-12-29T10:51:15;6.40;;;3.63;;
10303;SDS011;5197;48.152;8.590;2023-12-29T10:53:42;1.07;;;1.07;;
10303;SDS011;5197;48.152;8.590;2023-12-29T10:56:23;2.70;;;1.37;;
10303;SDS011;5197;48.152;8.590;2023-12-29T11:01:30;1.00;;;0.80;;
10303;SDS011;5197;48.152;8.590;2023-12-29T11:03:59;6.17;;;2.43;;
10303;SDS011;5197;48.152;8.590;2023-12-29T11:06:26;6.20;;;2.73;;
10303;SDS011;5197;48.152;8.590;2023-12-29T11:08:55;5.20;;;2.30;;
10303;SDS011;5197;48.152;8.590;2023-12-29T11:11:23;2.70;;;2.27;;
10303;SDS011;5197;48.152;8.590;2023-12-29T11:13:51;4.17;;;2.50;;
10303;SDS011;5197;48.152;8.590;2023-12-29T11:16:20;6.27;;;3.30;;
10303;SDS011;5197;48.152;8.590;2023-12-29T11:18:49;3.77;;;1.70;;
10303;SDS011;5197;48.152;8.590;2023-12-29T11:21:18;1.13;;;1.10;;
10303;SDS011;5197;48.152;8.590;2023-12-29T11:23:47;6.70;;;3.27;;
10303;SDS011;5197;48.152;8.590;2023-12-29T11:26:14;3.87;;;2.13;;
10303;SDS011;5197;48.152;8.590;2023-12-29T11:28:43;2.77;;;1.50;;
10303;SDS011;5197;48.152;8.590;2023-12-29T11:31:12;4.17;;;3.07;;
10303;SDS011;5197;48.152;8.590;2023-12-29T11:33:43;2.70;;;2.37;;
10303;SDS011;5197;48.152;8.590;2023-12-29T11:36:18;6.30;;;4.00;;
10303;SDS011;5197;48.152;8.590;2023-12-29T11:39:02;6.20;;;4.73;;
10303;SDS011;5197;48.152;8.590;2023-12-29T11:42:23;11.00;;;6.00;;
10303;SDS011;5197;48.152;8.590;2023-12-29T11:44:47;2.53;;;2.33;;
10303;SDS011;5197;48.152;8.590;2023-12-29T11:50:02;16.47;;;7.87;;
10303;SDS011;5197;48.152;8.590;2023-12-29T11:52:37;10.33;;;6.17;;
10303;SDS011;5197;48.152;8.590;2023-12-29T11:55:12;7.00;;;4.07;;
10303;SDS011;5197;48.152;8.590;2023-12-29T11:57:45;11.63;;;6.83;;
10303;SDS011;5197;48.152;8.590;2023-12-29T12:00:12;4.20;;;3.40;;
10303;SDS011;5197;48.152;8.590;2023-12-29T12:02:39;12.33;;;7.67;;
10303;SDS011;5197;48.152;8.590;2023-12-29T12:05:09;31.60;;;17.27;;
10303;SDS011;5197;48.152;8.590;2023-12-29T12:12:47;10.80;;;7.10;;
10303;SDS011;5197;48.152;8.590;2023-12-29T12:17:55;2.70;;;1.33;;
10303;SDS011;5197;48.152;8.590;2023-12-29T12:20:23;2.50;;;2.17;;
10303;SDS011;5197;48.152;8.590;2023-12-29T12:22:58;3.83;;;2.70;;
10303;SDS011;5197;48.152;8.590;2023-12-29T12:25:27;1.47;;;1.37;;
10303;SDS011;5197;48.152;8.590;2023-12-29T12:27:56;2.23;;;2.00;;
10303;SDS011;5197;48.152;8.590;2023-12-29T12:30:25;1.03;;;1.03;;
10303;SDS011;5197;48.152;8.590;2023-12-29T12:32:59;1.93;;;1.77;;
10303;SDS011;5197;48.152;8.590;2023-12-29T12:35:28;2.13;;;1.80;;
10303;SDS011;5197;48.152;8.590;2023-12-29T12:40:48;6.90;;;3.80;;
10303;SDS011;5197;48.152;8.590;2023-12-29T12:43:15;6.43;;;3.87;;
10303;SDS011;5197;48.152;8.590;2023-12-29T12:45:47;9.00;;;3.70;;
10303;SDS011;5197;48.152;8.590;2023-12-29T12:48:20;1.40;;;1.30;;
10303;SDS011;5197;48.152;8.590;2023-12-29T12:50:50;3.03;;;2.23;;
10303;SDS011;5197;48.152;8.590;2023-12-29T12:53:17;4.93;;;2.67;;
10303;SDS011;5197;48.152;8.590;2023-12-29T12:55:48;2.57;;;0.93;;
10303;SDS011;5197;48.152;8.590;2023-12-29T12:58:17;1.30;;;1.20;;
10303;SDS011;5197;48.152;8.590;2023-12-29T13:00:45;1.47;;;1.10;;
10303;SDS011;5197;48.152;8.590;2023-12-29T13:03:17;1.50;;;1.37;;
10303;SDS011;5197;48.152;8.590;2023-12-29T13:05:44;2.63;;;1.60;;
10303;SDS011;5197;48.152;8.590;2023-12-29T13:08:12;4.30;;;2.50;;
10303;SDS011;5197;48.152;8.590;2023-12-29T13:10:44;2.10;;;1.80;;
10303;SDS011;5197;48.152;8.590;2023-12-29T13:13:11;1.90;;;1.70;;
10303;SDS011;5197;48.152;8.590;2023-12-29T13:15:45;3.10;;;2.30;;
10303;SDS011;5197;48.152;8.590;2023-12-29T13:18:16;4.13;;;2.27;;
10303;SDS011;5197;48.152;8.590;2023-12-29T13:20:46;2.60;;;1.53;;
10303;SDS011;5197;48.152;8.590;2023-12-29T13:23:14;3.03;;;1.43;;
10303;SDS011;5197;48.152;8.590;2023-12-29T13:25:43;5.27;;;2.97;;
10303;SDS011;5197;48.152;8.590;2023-12-29T13:28:12;6.67;;;3.17;;
10303;SDS011;5197;48.152;8.590;2023-12-29T13:30:40;4.03;;;2.20;;
10303;SDS011;5197;48.152;8.590;2023-12-29T13:33:09;6.30;;;2.50;;
10303;SDS011;5197;48.152;8.590;2023-12-29T13:35:50;1.13;;;1.03;;
10303;SDS011;5197;48.152;8.590;2023-12-29T13:38:33;3.27;;;1.40;;
10303;SDS011;5197;48.152;8.590;2023-12-29T13:41:11;22.60;;;12.70;;
10303;SDS011;5197;48.152;8.590;2023-12-29T13:43:39;15.23;;;9.53;;
10303;SDS011;5197;48.152;8.590;2023-12-29T13:46:10;16.83;;;9.77;;
10303;SDS011;5197;48.152;8.590;2023-12-29T13:48:38;1.20;;;1.20;;
10303;SDS011;5197;48.152;8.590;2023-12-29T13:51:06;1.20;;;1.20;;
10303;SDS011;5197;48.152;8.590;2023-12-29T13:53:34;1.00;;;1.00;;
10303;SDS011;5197;48.152;8.590;2023-12-29T13:56:08;1.77;;;1.20;;
10303;SDS011;5197;48.152;8.590;2023-12-29T13:58:36;1.60;;;1.50;;
10303;SDS011;5197;48.152;8.590;2023-12-29T14:01:04;4.80;;;2.97;;
10303;SDS011;5197;48.152;8.590;2023-12-29T14:03:51;4.27;;;3.30;;
10303;SDS011;5197;48.152;8.590;2023-12-29T14:06:29;5.33;;;3.13;;
10303;SDS011;5197;48.152;8.590;2023-12-29T14:09:05;5.87;;;4.23;;
10303;SDS011;5197;48.152;8.590;2023-12-29T14:11:32;5.97;;;3.70;;
10303;SDS011;5197;48.152;8.590;2023-12-29T14:14:05;1.27;;;1.27;;
10303;SDS011;5197;48.152;8.590;2023-12-29T14:16:32;1.20;;;1.20;;
10303;SDS011;5197;48.152;8.590;2023-12-29T14:19:05;1.07;;;1.07;;
10303;SDS011;5197;48.152;8.590;2023-12-29T14:21:33;1.00;;;1.00;;
10303;SDS011;5197;48.152;8.590;2023-12-29T14:24:07;0.97;;;0.97;;
10303;SDS011;5197;48.152;8.590;2023-12-29T14:26:39;1.23;;;1.17;;
10303;SDS011;5197;48.152;8.590;2023-12-29T14:29:20;1.00;;;1.00;;
10303;SDS011;5197;48.152;8.590;2023-12-29T14:31:47;1.23;;;1.00;;
10303;SDS011;5197;48.152;8.590;2023-12-29T14:34:17;0.80;;;0.80;;
10303;SDS011;5197;48.152;8.590;2023-12-29T14:36:45;1.20;;;1.10;;
10303;SDS011;5197;48.152;8.590;2023-12-29T14:39:12;1.30;;;1.30;;
10303;SDS011;5197;48.152;8.590;2023-12-29T14:41:39;1.30;;;1.20;;
10303;SDS011;5197;48.152;8.590;2023-12-29T14:44:06;2.13;;;1.37;;
10303;SDS011;5197;48.152;8.590;2023-12-29T14:46:34;1.20;;;1.20;;
10303;SDS011;5197;48.152;8.590;2023-12-29T14:49:03;1.43;;;0.90;;
10303;SDS011;5197;48.152;8.590;2023-12-29T14:51:31;1.20;;;1.20;;
10303;SDS011;5197;48.152;8.590;2023-12-29T14:53:58;1.50;;;1.40;;
10303;SDS011;5197;48.152;8.590;2023-12-29T14:56:25;1.60;;;1.50;;
10303;SDS011;5197;48.152;8.590;2023-12-29T14:58:52;1.10;;;1.10;;
10303;SDS011;5197;48.152;8.590;2023-12-29T15:01:19;1.70;;;1.60;;
10303;SDS011;5197;48.152;8.590;2023-12-29T15:03:46;2.63;;;2.43;;
10303;SDS011;5197;48.152;8.590;2023-12-29T15:06:13;1.57;;;1.30;;
10303;SDS011;5197;48.152;8.590;2023-12-29T15:08:40;2.10;;;1.60;;
10303;SDS011;5197;48.152;8.590;2023-12-29T15:11:07;1.10;;;1.10;;
10303;SDS011;5197;48.152;8.590;2023-12-29T15:13:34;1.30;;;1.30;;
10303;SDS011;5197;48.152;8.590;2023-12-29T15:16:02;1.23;;;1.23;;
10303;SDS011;5197;48.152;8.590;2023-12-29T15:18:31;1.53;;;1.10;;
10303;SDS011;5197;48.152;8.590;2023-12-29T15:20:58;0.90;;;0.90;;
10303;SDS011;5197;48.152;8.590;2023-12-29T15:23:25;1.10;;;1.10;;
10303;SDS011;5197;48.152;8.590;2023-12-29T15:25:55;1.30;;;1.00;;
10303;SDS011;5197;48.152;8.590;2023-12-29T15:28:22;1.37;;;1.27;;
10303;SDS011;5197;48.152;8.590;2023-12-29T15:30:50;1.00;;;1.00;;
10303;SDS011;5197;48.152;8.590;2023-12-29T15:33:17;1.20;;;1.10;;
10303;SDS011;5197;48.152;8.590;2023-12-29T15:35:46;1.03;;;1.03;;
10303;SDS011;5197;48.152;8.590;2023-12-29T15:38:13;1.07;;;1.00;;